Time;durP1;ratioP1;P1;durP2;ratioP2;P2;SDS_P1;SDS_P2;PMS_P1;PMS_P2;Temp;Humidity;BMP_temperature;BMP_pressure;BME280_temperature;BME280_humidity;BME280_pressure;Samples;Min_cycle;Max_cycle;Signal;HPM_P1;HPM_P2
2022/08/16 00:00:04;;;;;;;12.32;7.70;;;;;;;16.10;73.78;93082.66;4953818;29;20496;-43
2022/08/16 00:02:29;;;;;;;8.45;7.28;;;;;;;16.03;73.99;93078.00;4953714;28;20027;-41
2022/08/16 00:27:21;;;;;;;8.13;7.25;;;;;;;16.74;69.54;93083.50;5107556;27;20854;-61
2022/08/16 00:29:47;;;;;;;9.73;7.47;;;;;;;16.42;70.78;93090.41;5140819;27;20119;-61
2022/08/16 00:32:13;;;;;;;8.38;6.55;;;;;;;16.46;71.11;93083.03;5107626;28;20150;-61
2022/08/16 00:34:38;;;;;;;8.27;6.03;;;;;;;16.38;70.81;93076.22;5107879;28;20034;-61
2022/08/16 00:37:04;;;;;;;7.22;6.47;;;;;;;16.21;71.35;93082.03;5106397;28;20454;-61
2022/08/16 00:39:29;;;;;;;9.95;6.78;;;;;;;16.12;71.81;93082.81;5107466;28;20024;-61
2022/08/16 00:41:55;;;;;;;8.85;6.90;;;;;;;15.92;72.42;93085.69;5107470;28;20077;-62
2022/08/16 00:44:21;;;;;;;8.85;7.25;;;;;;;16.03;71.87;93078.75;5106516;28;20031;-62
2022/08/16 00:46:56;;;;;;;9.25;6.72;;;;;;;16.02;72.12;93085.66;5107350;28;20039;-60
2022/08/16 00:49:23;;;;;;;8.88;7.10;;;;;;;15.77;73.19;93088.81;5106146;28;20063;-60
2022/08/16 00:51:51;;;;;;;9.60;7.50;;;;;;;15.81;73.33;93085.56;5107554;28;20019;-60
2022/08/16 00:54:17;;;;;;;9.43;7.15;;;;;;;15.78;73.57;93089.56;5106066;28;20034;-66
2022/08/16 00:56:44;;;;;;;9.73;7.85;;;;;;;15.65;73.81;93087.25;5107252;28;20016;-66
2022/08/16 00:59:12;;;;;;;13.30;8.40;;;;;;;15.75;73.16;93091.47;5106076;28;20073;-65
2022/08/16 01:01:38;;;;;;;10.40;8.00;;;;;;;15.70;73.38;93094.56;5107131;28;20038;-63
2022/08/16 01:04:05;;;;;;;8.52;6.82;;;;;;;15.62;74.18;93088.44;5107048;28;20630;-67
2022/08/16 01:06:33;;;;;;;10.00;6.82;;;;;;;15.71;73.58;93087.66;5107278;28;20075;-66
2022/08/16 01:09:00;;;;;;;10.40;7.63;;;;;;;15.60;73.75;93094.59;5105717;28;20539;-61
2022/08/16 01:11:26;;;;;;;8.02;7.22;;;;;;;15.56;73.32;93088.00;5105721;28;20035;-61
2022/08/16 01:13:54;;;;;;;11.88;6.72;;;;;;;15.45;73.56;93086.56;5106467;28;20496;-61
2022/08/16 01:16:22;;;;;;;7.27;6.23;;;;;;;15.48;73.80;93087.44;5105175;28;20020;-59
2022/08/16 01:18:56;;;;;;;9.15;6.95;;;;;;;15.50;73.49;93093.16;5091710;28;20020;-67
2022/08/16 01:21:30;;;;;;;12.40;7.13;;;;;;;15.29;74.00;93090.97;5091975;28;20020;-66
2022/08/16 01:24:16;;;;;;;8.68;6.53;;;;;;;15.40;73.28;93084.09;5092281;28;20027;-60
2022/08/16 01:26:43;;;;;;;12.90;7.40;;;;;;;15.32;73.31;93086.28;5091579;28;20048;-64
2022/08/16 01:29:12;;;;;;;10.00;6.55;;;;;;;15.29;73.69;93101.38;5092124;28;20081;-66
2022/08/16 01:31:38;;;;;;;9.57;7.30;;;;;;;15.16;74.56;93097.72;5092894;28;20024;-67
2022/08/16 01:34:04;;;;;;;11.40;7.78;;;;;;;15.14;74.37;93085.72;5091992;28;20027;-67
2022/08/16 01:36:30;;;;;;;9.13;6.78;;;;;;;15.15;73.46;93090.72;5092884;28;20024;-67
2022/08/16 01:38:55;;;;;;;9.15;7.68;;;;;;;15.09;74.23;93093.03;5091535;28;20492;-63
2022/08/16 01:41:24;;;;;;;10.05;6.95;;;;;;;15.23;73.28;93110.00;5093062;28;20024;-65
2022/08/16 01:43:51;;;;;;;8.40;6.95;;;;;;;15.27;73.29;93106.81;5093039;28;20020;-66
2022/08/16 01:46:19;;;;;;;16.48;6.95;;;;;;;15.24;73.23;93113.53;5092883;28;20028;-67
2022/08/16 01:48:45;;;;;;;8.35;6.97;;;;;;;15.26;73.14;93122.00;5092649;28;20028;-67
2022/08/16 01:51:12;;;;;;;8.93;7.25;;;;;;;15.08;73.70;93116.63;5092879;28;20047;-68
2022/08/16 01:53:37;;;;;;;15.52;7.72;;;;;;;15.18;73.36;93113.84;5092523;28;20488;-68
2022/08/16 01:56:03;;;;;;;8.75;7.03;;;;;;;15.15;73.33;93112.22;5091349;28;20089;-67
2022/08/16 01:58:28;;;;;;;12.98;7.53;;;;;;;15.14;73.63;93122.59;5092500;28;20045;-68
2022/08/16 02:00:54;;;;;;;9.80;7.50;;;;;;;15.10;73.77;93125.09;5092755;28;20028;-67
2022/08/16 02:03:20;;;;;;;11.18;7.72;;;;;;;15.01;74.15;93120.25;5092317;28;20043;-68
2022/08/16 02:05:46;;;;;;;11.75;7.20;;;;;;;14.97;74.49;93122.03;5092281;28;20051;-68
2022/08/16 02:08:11;;;;;;;11.05;6.93;;;;;;;14.90;74.74;93118.06;5092626;28;20024;-67
2022/08/16 02:10:37;;;;;;;10.30;7.03;;;;;;;14.95;74.33;93111.50;5092498;28;20656;-68
2022/08/16 02:13:06;;;;;;;12.00;8.23;;;;;;;14.94;74.99;93112.78;5092193;28;20031;-64
2022/08/16 02:15:33;;;;;;;11.15;8.60;;;;;;;14.90;74.70;93117.34;5091700;28;20048;-65
2022/08/16 02:18:00;;;;;;;12.85;8.93;;;;;;;14.97;74.49;93110.91;5090915;28;20036;-66
2022/08/16 02:20:27;;;;;;;9.88;8.30;;;;;;;15.03;74.25;93111.34;5092012;28;20027;-66
2022/08/16 02:22:53;;;;;;;12.80;7.22;;;;;;;14.99;74.15;93114.56;5091021;28;20028;-67
2022/08/16 02:25:19;;;;;;;9.35;7.60;;;;;;;14.98;74.54;93115.16;5091559;28;20083;-56
2022/08/16 02:27:45;;;;;;;8.55;7.07;;;;;;;14.93;74.02;93111.34;5091897;28;20059;-57
2022/08/16 02:30:17;;;;;;;8.80;7.05;;;;;;;14.87;74.88;93116.47;5089931;28;20032;-57
2022/08/16 02:32:44;;;;;;;9.25;7.03;;;;;;;14.52;75.92;93112.50;5091816;28;20097;-55
2022/08/16 02:35:10;;;;;;;10.30;7.72;;;;;;;14.49;75.92;93110.88;5091977;28;20020;-56
2022/08/16 02:37:35;;;;;;;12.50;8.23;;;;;;;14.62;74.09;93118.78;5091736;28;20516;-55
2022/08/16 02:40:03;;;;;;;9.80;7.68;;;;;;;14.55;73.82;93116.16;5091599;28;20035;-56
2022/08/16 02:42:29;;;;;;;9.93;7.88;;;;;;;14.47;74.70;93115.56;5091935;28;20103;-64
2022/08/16 02:44:54;;;;;;;12.48;8.18;;;;;;;14.27;75.80;93128.66;5091436;28;20028;-68
2022/08/16 02:47:22;;;;;;;14.10;8.73;;;;;;;14.27;76.29;93131.41;5091540;28;20035;-68
2022/08/16 02:49:48;;;;;;;11.30;9.00;;;;;;;14.27;76.41;93126.56;5091746;28;20019;-68
2022/08/16 02:52:14;;;;;;;15.30;10.30;;;;;;;14.39;76.59;93130.31;5091715;28;20515;-69
2022/08/16 02:54:40;;;;;;;17.95;12.30;;;;;;;14.41;77.02;93141.56;5091717;28;20019;-58
2022/08/16 02:57:05;;;;;;;17.98;12.27;;;;;;;14.48;76.11;93151.09;5091322;28;20116;-58
2022/08/16 02:59:30;;;;;;;18.77;12.48;;;;;;;14.49;75.98;93165.72;5091254;28;20034;-58
2022/08/16 03:01:56;;;;;;;20.17;13.23;;;;;;;14.51;76.52;93171.41;5091174;28;20024;-58
2022/08/16 03:04:22;;;;;;;17.33;11.95;;;;;;;14.42;77.38;93183.97;5090037;28;20024;-57
2022/08/16 03:06:50;;;;;;;17.45;12.70;;;;;;;14.52;76.67;93181.94;5091122;28;20016;-58
2022/08/16 03:09:16;;;;;;;19.42;13.05;;;;;;;14.41;77.64;93179.72;5108994;28;20028;-58
2022/08/16 03:11:43;;;;;;;16.98;11.25;;;;;;;14.50;77.21;93161.59;5111406;28;20024;-58
2022/08/16 03:14:09;;;;;;;13.25;10.05;;;;;;;14.60;76.66;93170.69;5103360;28;20127;-58
2022/08/16 03:16:34;;;;;;;12.40;8.95;;;;;;;14.59;76.65;93178.31;5091263;28;20426;-58
2022/08/16 03:19:00;;;;;;;15.88;10.68;;;;;;;14.71;76.16;93172.91;5090922;28;20028;-58
2022/08/16 03:21:26;;;;;;;15.05;10.73;;;;;;;14.61;75.52;93174.94;5091176;28;20058;-59
2022/08/16 03:23:52;;;;;;;13.38;10.45;;;;;;;14.49;75.74;93179.59;5090830;28;20374;-59
2022/08/16 03:26:17;;;;;;;19.67;11.52;;;;;;;14.39;75.98;93176.78;5090491;28;20047;-58
2022/08/16 03:28:43;;;;;;;15.32;11.00;;;;;;;14.42;76.87;93175.63;5090771;28;20012;-58
2022/08/16 03:31:08;;;;;;;15.55;10.90;;;;;;;14.36;77.43;93172.38;5091001;28;20515;-59
2022/08/16 03:33:34;;;;;;;20.58;11.73;;;;;;;14.31;77.99;93170.63;5090644;28;20027;-58
2022/08/16 03:36:00;;;;;;;21.50;10.98;;;;;;;14.37;78.15;93162.75;5090956;28;20012;-57
2022/08/16 03:38:28;;;;;;;15.23;10.98;;;;;;;14.42;78.08;93156.19;5090954;28;20081;-58
2022/08/16 03:40:55;;;;;;;15.60;11.07;;;;;;;14.26;78.87;93136.25;5090589;28;20039;-61
2022/08/16 03:43:21;;;;;;;13.30;10.30;;;;;;;14.51;80.04;93174.91;5090266;28;20509;-61
2022/08/16 03:45:47;;;;;;;13.23;10.00;;;;;;;14.55;80.16;93164.13;5090432;28;20028;-60
2022/08/16 03:48:13;;;;;;;14.95;10.23;;;;;;;14.65;80.73;93170.41;5090786;28;20024;-59
2022/08/16 03:50:38;;;;;;;12.90;10.55;;;;;;;14.69;81.19;93159.59;5090793;28;20027;-60
2022/08/16 03:53:04;;;;;;;15.93;11.35;;;;;;;14.67;81.75;93153.91;5090443;28;20419;-58
2022/08/16 03:55:30;;;;;;;16.73;10.88;;;;;;;14.73;81.80;93153.59;5090385;28;20055;-59
2022/08/16 03:57:56;;;;;;;12.93;10.15;;;;;;;14.84;81.41;93147.47;5090365;28;20051;-59
2022/08/16 04:00:25;;;;;;;15.07;10.95;;;;;;;14.86;80.78;93150.41;5090392;28;20016;-59
2022/08/16 04:02:52;;;;;;;13.95;10.15;;;;;;;14.92;80.05;93146.00;5090637;28;20111;-60
2022/08/16 04:05:18;;;;;;;13.70;10.27;;;;;;;14.95;80.35;93146.91;5090179;28;20036;-60
2022/08/16 04:07:43;;;;;;;15.85;11.05;;;;;;;15.03;80.69;93147.47;5090600;28;20028;-60
2022/08/16 04:10:10;;;;;;;12.70;9.27;;;;;;;14.91;80.51;93138.25;5090286;28;20034;-59
2022/08/16 04:12:37;;;;;;;10.65;8.82;;;;;;;15.08;78.88;93160.34;5090292;28;20506;-63
2022/08/16 04:15:05;;;;;;;10.77;9.00;;;;;;;15.11;79.02;93165.50;5089760;28;20164;-61
2022/08/16 04:17:31;;;;;;;15.60;8.93;;;;;;;15.16;78.51;93164.47;5090199;28;20085;-58
2022/08/16 04:19:57;;;;;;;11.88;9.80;;;;;;;14.96;78.63;93140.03;5096410;28;20127;-60
2022/08/16 04:22:22;;;;;;;13.65;9.43;;;;;;;15.01;79.32;93166.78;5110358;28;20031;-60
2022/08/16 04:24:48;;;;;;;12.95;10.23;;;;;;;14.95;80.35;93164.31;5110764;28;20023;-60
2022/08/16 04:27:13;;;;;;;14.20;10.68;;;;;;;14.93;80.68;93150.28;5110228;28;20043;-59
2022/08/16 04:29:39;;;;;;;12.18;10.30;;;;;;;14.96;80.80;93154.66;5110412;28;20015;-59
2022/08/16 04:32:05;;;;;;;14.90;11.65;;;;;;;15.00;81.17;93154.97;5110723;28;20031;-59
2022/08/16 04:34:33;;;;;;;18.65;11.43;;;;;;;14.99;81.44;93152.75;5110625;28;20111;-59
2022/08/16 04:36:58;;;;;;;21.77;13.13;;;;;;;15.04;81.33;93151.72;5110327;28;20462;-60
2022/08/16 04:39:25;;;;;;;14.18;11.43;;;;;;;15.11;81.00;93151.59;5110353;28;20019;-60
2022/08/16 04:41:51;;;;;;;13.25;10.27;;;;;;;15.22;80.86;93157.88;5109809;28;20019;-61
2022/08/16 04:44:17;;;;;;;13.75;10.07;;;;;;;15.33;81.34;93155.25;5110251;28;20031;-59
2022/08/16 04:46:42;;;;;;;13.07;9.55;;;;;;;15.42;81.02;93156.56;5110444;28;20024;-60
2022/08/16 04:49:09;;;;;;;12.30;9.65;;;;;;;15.46;80.76;93162.44;5110217;28;20419;-63
2022/08/16 04:51:35;;;;;;;15.32;10.70;;;;;;;15.49;79.97;93158.47;5110365;28;20055;-60
2022/08/16 04:54:00;;;;;;;14.60;9.10;;;;;;;15.55;79.49;93156.84;5114295;28;20073;-59
2022/08/16 04:56:26;;;;;;;15.90;9.88;;;;;;;15.62;79.57;93164.31;5114074;28;20727;-58
2022/08/16 04:58:51;;;;;;;11.70;9.57;;;;;;;15.69;79.74;93168.25;5113969;28;20508;-67
2022/08/16 05:01:17;;;;;;;13.40;10.77;;;;;;;15.58;79.61;93149.38;5113963;28;20027;-68
2022/08/16 05:03:43;;;;;;;12.77;10.15;;;;;;;15.76;79.49;93154.19;5113920;28;20020;-67
2022/08/16 05:06:09;;;;;;;13.40;9.65;;;;;;;15.87;79.85;93159.09;5113826;28;20038;-67
2022/08/16 05:08:34;;;;;;;15.32;9.60;;;;;;;15.97;80.33;93152.78;5104185;27;20026;-67
2022/08/16 05:11:09;;;;;;;13.43;9.18;;;;;;;16.01;80.29;93144.69;5093405;28;20032;-60
2022/08/16 05:13:36;;;;;;;12.65;9.20;;;;;;;16.04;80.48;93146.31;5093727;28;20103;-59
2022/08/16 05:16:02;;;;;;;15.60;9.82;;;;;;;16.02;81.04;93146.91;5093132;28;20386;-60
2022/08/16 05:18:27;;;;;;;11.88;9.60;;;;;;;16.20;81.27;93142.56;5093564;28;20024;-59
2022/08/16 05:20:53;;;;;;;12.63;10.15;;;;;;;16.33;81.14;93147.66;5093454;28;20401;-59
2022/08/16 05:23:19;;;;;;;14.43;10.13;;;;;;;16.38;80.45;93146.59;5093519;28;20112;-59
2022/08/16 05:25:44;;;;;;;12.32;9.55;;;;;;;16.41;79.79;93136.31;5093104;28;20075;-58
2022/08/16 05:28:10;;;;;;;13.25;9.85;;;;;;;16.45;79.73;93142.91;5093312;28;20572;-60
2022/08/16 05:30:37;;;;;;;12.25;10.38;;;;;;;16.35;80.12;93135.94;5093332;28;20448;-60
2022/08/16 05:33:03;;;;;;;15.82;10.20;;;;;;;16.29;80.40;93130.66;5092658;28;20488;-60
2022/08/16 05:35:29;;;;;;;14.40;11.65;;;;;;;16.39;80.51;93150.88;5101132;28;20077;-60
2022/08/16 05:37:54;;;;;;;18.95;10.75;;;;;;;16.48;80.67;93147.28;5092741;28;20039;-61
2022/08/16 05:40:20;;;;;;;21.70;13.52;;;;;;;16.50;80.94;93153.00;5092816;28;20103;-63
2022/08/16 05:42:45;;;;;;;19.60;13.95;;;;;;;16.53;80.98;93162.97;5093130;28;20020;-65
2022/08/16 05:45:11;;;;;;;15.43;12.93;;;;;;;16.57;80.61;93174.41;5081806;28;20020;-65
2022/08/16 05:47:36;;;;;;;13.05;11.55;;;;;;;16.73;80.62;93171.22;5079918;28;20052;-65
2022/08/16 05:50:04;;;;;;;14.55;12.07;;;;;;;16.80;81.04;93164.75;5081205;28;20032;-65
2022/08/16 05:52:29;;;;;;;13.95;10.75;;;;;;;16.87;81.40;93169.41;5089960;28;20028;-64
2022/08/16 05:54:55;;;;;;;16.48;11.70;;;;;;;16.91;81.79;93158.50;5079685;28;20035;-67
2022/08/16 05:57:20;;;;;;;15.95;13.77;;;;;;;17.01;82.45;93170.31;5091874;28;20040;-62
2022/08/16 05:59:46;;;;;;;17.35;12.32;;;;;;;17.13;82.75;93165.53;5087967;28;20062;-61
2022/08/16 06:02:12;;;;;;;15.65;12.55;;;;;;;17.30;82.04;93170.84;5072178;28;20433;-59
2022/08/16 06:04:38;;;;;;;17.65;12.60;;;;;;;17.37;81.75;93169.88;5090384;28;20534;-61
2022/08/16 06:07:05;;;;;;;18.73;13.00;;;;;;;17.40;81.72;93168.69;5091970;28;20024;-63
2022/08/16 06:09:31;;;;;;;17.88;14.35;;;;;;;17.39;82.23;93161.63;5091965;28;20027;-63
2022/08/16 06:11:59;;;;;;;21.20;13.88;;;;;;;17.43;82.29;93164.72;5091701;28;20028;-64
2022/08/16 06:14:25;;;;;;;22.10;14.60;;;;;;;17.60;82.42;93175.59;5098696;28;20058;-61
2022/08/16 06:16:52;;;;;;;145.45;88.32;;;;;;;17.85;82.39;93161.09;5091760;28;20032;-61
2022/08/16 06:19:18;;;;;;;58.80;42.65;;;;;;;18.18;82.24;93158.97;5091793;28;20020;-63
2022/08/16 06:21:44;;;;;;;24.63;22.20;;;;;;;18.59;82.25;93173.34;5091069;28;20032;-63
2022/08/16 06:24:10;;;;;;;16.35;12.95;;;;;;;18.93;79.01;93162.13;5071643;28;20040;-65
2022/08/16 06:26:35;;;;;;;13.43;11.30;;;;;;;19.12;77.58;93168.81;5071099;28;20148;-65
2022/08/16 06:29:01;;;;;;;13.90;11.23;;;;;;;19.19;76.33;93160.13;5071313;28;20087;-65
2022/08/16 06:31:26;;;;;;;13.02;10.90;;;;;;;19.18;76.54;93158.69;5071634;28;20024;-64
2022/08/16 06:33:51;;;;;;;12.63;10.50;;;;;;;19.24;76.32;93161.81;5071550;28;20035;-65
2022/08/16 06:36:17;;;;;;;14.68;10.90;;;;;;;19.25;76.44;93152.06;5071576;28;20016;-64
2022/08/16 06:38:43;;;;;;;14.75;10.93;;;;;;;19.33;78.22;93157.41;5070822;28;20109;-64
2022/08/16 06:41:09;;;;;;;14.65;11.77;;;;;;;19.41;76.89;93152.31;5069828;28;20028;-62
2022/08/16 06:43:35;;;;;;;17.10;11.77;;;;;;;19.45;77.63;93153.25;5101925;28;20066;-63
2022/08/16 06:46:02;;;;;;;15.98;11.52;;;;;;;19.57;76.07;93148.34;5089730;28;20059;-63
2022/08/16 06:48:28;;;;;;;17.60;10.93;;;;;;;19.64;75.93;93138.94;5088465;28;20032;-63
2022/08/16 06:50:54;;;;;;;12.35;10.63;;;;;;;19.68;75.52;93118.84;5089665;28;20081;-62
2022/08/16 06:53:19;;;;;;;11.60;10.13;;;;;;;20.08;74.47;93131.50;5089278;28;20035;-66
2022/08/16 06:55:45;;;;;;;14.10;9.70;;;;;;;20.37;73.64;93123.28;5091120;28;20062;-64
2022/08/16 06:58:11;;;;;;;13.30;10.27;;;;;;;20.38;73.15;93122.66;5091342;28;20038;-65
2022/08/16 07:00:37;;;;;;;12.43;10.27;;;;;;;20.61;71.01;93130.16;5099149;28;20027;-63
2022/08/16 07:03:03;;;;;;;14.10;10.73;;;;;;;20.53;71.30;93132.53;5090495;28;20141;-62
2022/08/16 07:05:30;;;;;;;12.90;10.10;;;;;;;20.47;70.72;93137.09;5071294;28;20070;-63
2022/08/16 07:07:56;;;;;;;13.48;9.57;;;;;;;20.61;71.32;93135.03;5077793;28;20019;-64
2022/08/16 07:10:22;;;;;;;12.07;10.23;;;;;;;20.62;70.42;93134.41;5089583;28;20028;-64
2022/08/16 07:12:49;;;;;;;12.57;9.70;;;;;;;20.56;70.77;93131.28;5089126;28;20028;-64
2022/08/16 07:15:17;;;;;;;10.63;8.88;;;;;;;20.61;70.29;93124.56;5087117;28;20027;-66
2022/08/16 07:17:44;;;;;;;10.30;7.72;;;;;;;20.62;70.18;93120.38;5087544;28;20034;-67
2022/08/16 07:20:11;;;;;;;11.93;9.50;;;;;;;20.71;68.02;93108.22;5090808;28;20028;-65
2022/08/16 07:22:38;;;;;;;14.68;9.55;;;;;;;20.78;68.95;93110.00;5088973;28;20020;-62
2022/08/16 07:25:08;;;;;;;9.57;8.27;;;;;;;20.93;70.74;93114.25;5088722;28;20398;-61
2022/08/16 07:27:33;;;;;;;9.18;8.27;;;;;;;21.24;67.76;93114.44;5089721;28;20023;-63
2022/08/16 07:29:59;;;;;;;9.80;8.50;;;;;;;21.63;66.38;93114.22;5088672;28;20504;-67
2022/08/16 07:32:25;;;;;;;8.25;7.45;;;;;;;21.93;64.81;93109.31;5087699;28;20040;-64
2022/08/16 07:34:51;;;;;;;7.60;6.70;;;;;;;22.72;63.48;93113.66;5089410;28;20464;-67
2022/08/16 07:37:16;;;;;;;6.90;6.13;;;;;;;23.72;58.66;93114.34;5089393;28;20095;-63
2022/08/16 07:39:42;;;;;;;11.77;6.68;;;;;;;24.82;53.71;93113.00;5089034;28;20024;-64
2022/08/16 07:42:07;;;;;;;6.20;5.60;;;;;;;26.12;51.36;93106.78;5089617;28;20016;-63
2022/08/16 07:44:33;;;;;;;8.63;6.28;;;;;;;26.39;48.36;93109.03;5090604;28;20046;-66
2022/08/16 07:46:58;;;;;;;6.68;5.72;;;;;;;27.02;47.60;93105.94;5088857;28;20031;-62
2022/08/16 07:49:24;;;;;;;6.72;5.45;;;;;;;27.84;45.19;93110.22;5088878;28;20032;-65
2022/08/16 07:51:50;;;;;;;7.45;5.40;;;;;;;28.52;42.66;93111.13;5086020;28;20111;-66
2022/08/16 07:54:17;;;;;;;6.07;5.32;;;;;;;28.60;41.46;93121.97;5089270;28;20088;-64
2022/08/16 07:56:42;;;;;;;6.15;4.82;;;;;;;28.47;42.41;93123.78;5088668;28;20076;-65
2022/08/16 07:59:08;;;;;;;5.57;4.55;;;;;;;28.89;40.62;93119.03;5088762;28;20028;-63
2022/08/16 08:01:34;;;;;;;5.72;4.70;;;;;;;29.08;40.64;93123.00;5088715;28;20046;-62
2022/08/16 08:04:00;;;;;;;7.32;5.32;;;;;;;29.42;40.56;93114.41;5088933;28;20024;-61
2022/08/16 08:06:27;;;;;;;5.50;5.00;;;;;;;29.89;38.42;93120.28;5087963;28;20455;-63
2022/08/16 08:08:53;;;;;;;5.63;5.13;;;;;;;30.55;38.78;93125.63;5088868;28;20036;-62
2022/08/16 08:11:21;;;;;;;5.85;5.25;;;;;;;30.62;37.42;93121.44;5088518;28;20111;-62
2022/08/16 08:13:46;;;;;;;5.57;5.03;;;;;;;31.13;37.20;93117.13;5088849;28;20023;-62
2022/08/16 08:16:13;;;;;;;5.80;5.30;;;;;;;31.13;35.84;93120.00;5088773;28;20028;-59
2022/08/16 08:18:39;;;;;;;5.85;5.32;;;;;;;31.62;35.90;93124.84;5088655;28;20035;-61
2022/08/16 08:21:06;;;;;;;5.40;4.90;;;;;;;31.49;33.94;93117.56;5088089;28;20039;-60
2022/08/16 08:23:35;;;;;;;5.70;5.15;;;;;;;31.70;34.66;93130.66;5088498;28;20077;-60
2022/08/16 08:26:02;;;;;;;6.05;5.47;;;;;;;32.26;34.06;93126.91;5088285;28;20141;-63
2022/08/16 08:28:30;;;;;;;6.57;4.55;;;;;;;32.11;33.42;93128.94;5091518;28;20023;-62
2022/08/16 08:30:57;;;;;;;5.85;5.13;;;;;;;31.80;35.08;93132.88;5092654;28;20082;-62
2022/08/16 08:33:22;;;;;;;8.82;5.93;;;;;;;31.27;35.68;93132.28;5086916;28;20028;-63
2022/08/16 08:35:48;;;;;;;5.95;5.35;;;;;;;31.51;36.70;93131.16;5092276;28;20404;-64
2022/08/16 08:38:14;;;;;;;5.80;5.28;;;;;;;31.54;35.14;93127.63;5091446;28;20047;-67
2022/08/16 08:40:40;;;;;;;7.60;5.13;;;;;;;31.60;36.08;93133.41;5091688;28;20531;-66
2022/08/16 08:43:09;;;;;;;5.25;4.75;;;;;;;31.38;35.84;93125.28;5090930;28;20024;-64
2022/08/16 08:45:35;;;;;;;7.47;5.60;;;;;;;31.34;35.17;93119.53;5090639;28;20501;-67
2022/08/16 08:48:01;;;;;;;6.57;5.95;;;;;;;31.55;34.53;93120.50;5090526;28;20169;-65
2022/08/16 08:50:27;;;;;;;5.80;5.20;;;;;;;31.81;34.41;93125.78;5086666;28;20027;-64
2022/08/16 08:52:53;;;;;;;7.75;4.97;;;;;;;31.66;34.19;93127.78;5089185;28;20031;-65
2022/08/16 08:55:21;;;;;;;5.20;4.70;;;;;;;31.28;34.80;93136.59;5087465;28;20535;-65
2022/08/16 08:57:46;;;;;;;6.05;4.97;;;;;;;31.48;35.38;93136.13;5088803;28;20044;-67
2022/08/16 09:00:14;;;;;;;4.90;4.15;;;;;;;31.46;33.40;93118.25;5092381;28;20046;-59
2022/08/16 09:02:44;;;;;;;4.95;4.07;;;;;;;32.09;33.93;93134.63;5092261;28;20111;-63
2022/08/16 09:05:11;;;;;;;5.68;4.30;;;;;;;32.21;33.03;93134.72;5093452;28;20027;-63
2022/08/16 09:07:37;;;;;;;4.75;4.13;;;;;;;32.56;31.94;93113.59;5093393;28;20027;-63
2022/08/16 09:10:04;;;;;;;5.10;4.20;;;;;;;32.80;32.50;93119.44;5093336;28;20024;-62
2022/08/16 09:12:30;;;;;;;6.30;4.22;;;;;;;32.81;31.31;93123.03;5093368;28;20448;-63
2022/08/16 09:14:55;;;;;;;7.00;4.50;;;;;;;33.30;31.94;93121.13;5093079;28;20033;-63
2022/08/16 09:17:21;;;;;;;7.18;4.82;;;;;;;33.57;31.63;93116.94;5091956;28;20035;-63
2022/08/16 09:19:46;;;;;;;4.32;3.92;;;;;;;33.74;31.67;93112.00;5092980;28;20632;-64
2022/08/16 09:22:12;;;;;;;6.03;4.03;;;;;;;33.78;30.11;93109.13;5093277;28;20073;-63
2022/08/16 09:24:38;;;;;;;4.43;4.03;;;;;;;34.05;29.60;93108.47;5091493;28;20652;-62
2022/08/16 09:27:04;;;;;;;5.82;4.72;;;;;;;34.32;29.50;93114.94;5092677;28;20127;-59
2022/08/16 09:29:30;;;;;;;4.68;4.03;;;;;;;34.51;29.00;93113.53;5093446;28;20051;-64
2022/08/16 09:31:57;;;;;;;5.95;4.35;;;;;;;34.96;27.49;93111.28;5092727;28;20035;-65
2022/08/16 09:34:23;;;;;;;5.60;4.10;;;;;;;34.96;28.26;93117.75;5092944;28;20028;-66
2022/08/16 09:36:48;;;;;;;4.20;3.83;;;;;;;34.75;27.94;93115.63;5093664;28;20020;-65
2022/08/16 09:39:14;;;;;;;4.72;3.90;;;;;;;35.28;27.82;93125.56;5084174;28;20085;-62
2022/08/16 09:41:40;;;;;;;4.68;4.22;;;;;;;35.29;26.85;93121.25;5083615;28;20501;-65
2022/08/16 09:44:06;;;;;;;5.68;3.83;;;;;;;35.54;27.07;93119.72;5090941;28;20059;-67
2022/08/16 09:46:32;;;;;;;4.20;3.38;;;;;;;35.75;26.13;93126.81;5090942;28;20024;-65
2022/08/16 09:48:58;;;;;;;5.72;4.05;;;;;;;35.85;26.17;93114.53;5091346;28;20439;-66
2022/08/16 09:51:27;;;;;;;5.15;2.92;;;;;;;35.51;25.67;93111.84;5090327;28;20042;-62
2022/08/16 09:53:54;;;;;;;8.95;3.58;;;;;;;35.30;25.60;93121.97;5084410;28;20029;-65
2022/08/16 09:56:31;;;;;;;3.03;2.83;;;;;;;35.12;26.58;93133.50;5085581;28;20446;-67
2022/08/16 09:58:58;;;;;;;5.22;3.70;;;;;;;35.13;26.48;93124.16;5090542;28;20036;-61
2022/08/16 10:01:24;;;;;;;4.85;4.22;;;;;;;34.86;26.82;93114.91;5091177;28;20024;-65
2022/08/16 10:03:51;;;;;;;4.07;3.25;;;;;;;34.81;26.39;93113.47;5089244;28;20097;-67
2022/08/16 10:06:18;;;;;;;3.30;3.00;;;;;;;35.43;26.63;93120.50;5091013;28;20449;-65
2022/08/16 10:08:44;;;;;;;3.60;3.30;;;;;;;35.61;26.05;93112.53;5087923;28;20484;-63
2022/08/16 10:14:05;;;;;;;4.28;3.90;;;;;;;35.35;25.74;93111.88;5070229;28;20128;-65
2022/08/16 10:16:32;;;;;;;3.25;2.90;;;;;;;35.51;24.74;93109.72;5090807;28;20024;-66
2022/08/16 10:18:58;;;;;;;8.00;6.43;;;;;;;35.21;25.70;93106.22;5089992;28;20101;-60
2022/08/16 10:21:23;;;;;;;3.22;2.92;;;;;;;35.57;25.59;93123.31;5090732;28;20034;-61
2022/08/16 10:23:51;;;;;;;4.00;3.70;;;;;;;35.56;25.35;93116.16;5089352;28;20031;-66
2022/08/16 10:26:17;;;;;;;6.33;3.57;;;;;;;34.87;25.44;93107.03;5090168;28;20046;-67
2022/08/16 10:28:43;;;;;;;4.43;3.88;;;;;;;34.95;26.01;93115.59;5083093;28;20024;-65
2022/08/16 10:31:09;;;;;;;4.18;3.28;;;;;;;35.42;24.58;93105.41;5069872;28;20024;-65
2022/08/16 10:33:35;;;;;;;4.07;3.45;;;;;;;35.65;26.10;93126.84;5083221;28;20077;-65
2022/08/16 10:36:04;;;;;;;4.15;3.70;;;;;;;35.97;25.18;93116.66;5089251;28;20016;-66
2022/08/16 10:38:30;;;;;;;3.72;2.80;;;;;;;35.77;24.81;93117.47;5083495;28;20051;-64
2022/08/16 10:40:56;;;;;;;8.45;3.80;;;;;;;35.45;24.70;93115.47;5089508;28;20060;-64
2022/08/16 10:43:22;;;;;;;3.88;3.47;;;;;;;35.61;23.75;93120.41;5089480;28;20058;-66
2022/08/16 10:45:50;;;;;;;5.20;3.88;;;;;;;36.07;24.60;93113.72;5088980;28;20024;-63
2022/08/16 10:48:16;;;;;;;6.43;3.33;;;;;;;36.22;24.61;93118.63;5088734;28;20156;-65
2022/08/16 10:50:41;;;;;;;9.45;4.53;;;;;;;36.36;24.87;93115.63;5087819;28;20505;-65
2022/08/16 10:53:07;;;;;;;5.50;4.00;;;;;;;36.24;24.14;93109.25;5089411;28;20036;-61
2022/08/16 10:55:37;;;;;;;4.97;3.72;;;;;;;36.16;24.35;93112.94;5089660;28;20024;-62
2022/08/16 10:58:08;;;;;;;5.03;3.33;;;;;;;36.43;24.09;93110.56;5089100;28;20042;-65
2022/08/16 11:00:37;;;;;;;3.95;3.35;;;;;;;37.01;23.56;93112.94;5088921;28;20043;-67
2022/08/16 11:03:03;;;;;;;4.25;3.47;;;;;;;37.31;23.27;93116.91;5088066;28;20771;-65
2022/08/16 11:05:31;;;;;;;8.05;3.50;;;;;;;37.02;23.53;93110.75;5088754;28;20106;-63
2022/08/16 11:07:56;;;;;;;5.80;3.03;;;;;;;36.89;22.34;93124.56;5086992;28;20039;-65
2022/08/16 11:10:35;;;;;;;6.30;3.53;;;;;;;36.73;22.27;93121.84;5088002;28;20040;-61
2022/08/16 11:13:01;;;;;;;4.95;3.95;;;;;;;36.38;23.00;93114.91;5088880;28;20559;-66
2022/08/16 11:15:27;;;;;;;5.55;3.47;;;;;;;35.86;23.53;93115.25;5085871;28;20028;-64
2022/08/16 11:17:53;;;;;;;6.95;3.63;;;;;;;35.46;24.33;93119.75;5088818;28;20028;-64
2022/08/16 11:20:19;;;;;;;4.80;3.53;;;;;;;34.86;24.19;93112.03;5089186;28;20035;-63
2022/08/16 11:22:46;;;;;;;7.57;4.28;;;;;;;34.28;25.91;93112.09;5088603;28;20024;-67
2022/08/16 11:25:14;;;;;;;6.93;3.78;;;;;;;33.81;27.16;93114.16;5087790;28;20036;-67
2022/08/16 11:27:40;;;;;;;7.38;3.47;;;;;;;33.12;26.47;93116.06;5087302;28;20045;-63
2022/08/16 11:30:08;;;;;;;4.18;3.65;;;;;;;32.29;28.89;93106.22;5084381;28;20115;-65
2022/08/16 11:32:34;;;;;;;4.23;3.83;;;;;;;32.17;28.52;93106.13;5067074;28;20024;-66
2022/08/16 11:35:08;;;;;;;4.90;4.40;;;;;;;32.09;30.01;93097.50;5066509;28;21090;-67
2022/08/16 11:37:34;;;;;;;7.25;3.70;;;;;;;31.93;30.14;93103.03;5067922;28;20029;-65
2022/08/16 11:40:01;;;;;;;6.65;4.15;;;;;;;31.66;30.19;93107.78;5067972;28;20025;-64
2022/08/16 11:42:26;;;;;;;3.95;3.47;;;;;;;31.40;29.74;93113.91;5086248;28;20023;-65
2022/08/16 11:44:52;;;;;;;4.03;3.42;;;;;;;31.19;30.14;93114.34;5081791;28;20023;-65
2022/08/16 11:47:17;;;;;;;12.65;4.50;;;;;;;30.97;31.35;93117.66;5087586;28;20052;-64